createdAt,value
2022-10-09T00:01:29.531Z,11.79
2022-10-09T00:03:58.783Z,10.75
2022-10-09T00:06:30.552Z,11.88
2022-10-09T00:08:58.584Z,12.26
2022-10-09T00:11:28.939Z,11.96
2022-10-09T00:13:57.281Z,12.14
2022-10-09T00:16:25.741Z,10.41
2022-10-09T00:18:53.802Z,11.17
2022-10-09T00:21:30.938Z,11.55
2022-10-09T00:24:00.666Z,11.84
2022-10-09T00:26:28.646Z,11.87
2022-10-09T00:28:56.432Z,11.40
2022-10-09T00:31:25.441Z,11.00
2022-10-09T00:33:52.501Z,10.64
2022-10-09T00:36:23.835Z,10.46
2022-10-09T00:38:51.640Z,10.33
2022-10-09T00:41:26.243Z,10.11
2022-10-09T00:43:58.373Z,11.36
2022-10-09T00:46:48.723Z,11.87
2022-10-09T00:49:26.076Z,11.83
2022-10-09T00:51:56.904Z,11.16
2022-10-09T00:54:29.575Z,10.69
2022-10-09T00:56:57.162Z,11.61
2022-10-09T00:59:25.276Z,11.23
2022-10-09T01:01:53.004Z,11.16
2022-10-09T01:04:20.108Z,10.89
2022-10-09T01:07:17.033Z,10.34
2022-10-09T01:10:35.725Z,10.01
2022-10-09T01:13:28.647Z,10.76
2022-10-09T01:16:13.980Z,10.87
2022-10-09T01:18:53.521Z,11.26
2022-10-09T01:21:58.273Z,10.52
2022-10-09T01:24:41.269Z,10.00
2022-10-09T01:27:23.733Z,10.98
2022-10-09T01:29:58.731Z,11.08
2022-10-09T01:32:35.117Z,10.31
2022-10-09T01:35:06.037Z,10.00
2022-10-09T01:37:35.378Z,9.66
2022-10-09T01:40:05.494Z,10.05
2022-10-09T01:42:33.009Z,9.63
2022-10-09T01:45:00.116Z,9.91
2022-10-09T01:47:27.339Z,9.42
2022-10-09T01:50:34.350Z,10.83
2022-10-09T01:53:10.271Z,10.22
2022-10-09T01:55:50.034Z,9.83
2022-10-09T01:58:48.449Z,10.92
2022-10-09T02:01:28.885Z,10.86
2022-10-09T02:03:58.941Z,9.71
2022-10-09T02:06:28.277Z,10.60
2022-10-09T02:08:56.254Z,10.73
2022-10-09T02:11:29.639Z,10.50
2022-10-09T02:13:56.693Z,10.74
2022-10-09T02:17:04.933Z,10.91
2022-10-09T02:19:34.554Z,9.83
2022-10-09T02:22:13.308Z,9.36
2022-10-09T02:24:41.330Z,10.52
2022-10-09T02:27:11.030Z,10.66
2022-10-09T02:29:44.351Z,10.27
2022-10-09T02:32:12.064Z,10.31
2022-10-09T02:34:39.469Z,10.65
2022-10-09T02:37:07.463Z,10.28
2022-10-09T02:39:35.204Z,9.80
2022-10-09T02:42:03.066Z,9.23
2022-10-09T02:44:30.169Z,10.54
2022-10-09T02:46:57.407Z,9.72
2022-10-09T02:49:24.369Z,10.08
2022-10-09T02:51:51.593Z,10.32
2022-10-09T02:54:18.727Z,10.23
2022-10-09T02:56:45.693Z,9.86
2022-10-09T02:59:12.789Z,10.30
2022-10-09T03:01:39.788Z,10.45
2022-10-09T03:04:06.944Z,10.14
2022-10-09T03:06:34.804Z,9.34
2022-10-09T03:09:02.135Z,8.45
2022-10-09T03:11:29.107Z,9.16
2022-10-09T03:13:56.471Z,9.98
2022-10-09T03:16:25.992Z,8.56
2022-10-09T03:18:53.899Z,8.78
2022-10-09T03:21:25.183Z,10.02
2022-10-09T03:23:53.605Z,9.76
2022-10-09T03:29:11.348Z,8.66
2022-10-09T03:31:53.762Z,8.11
2022-10-09T03:34:21.468Z,8.18
2022-10-09T03:36:48.358Z,8.12
2022-10-09T03:39:15.480Z,8.06
2022-10-09T03:41:42.464Z,9.02
2022-10-09T03:44:09.380Z,8.85
2022-10-09T03:46:36.769Z,9.12
2022-10-09T03:49:03.933Z,8.87
2022-10-09T03:51:30.880Z,8.61
2022-10-09T03:53:58.524Z,8.38
2022-10-09T03:56:25.518Z,9.33
2022-10-09T03:58:52.500Z,9.04
2022-10-09T04:01:19.968Z,8.79
2022-10-09T04:03:46.922Z,8.26
2022-10-09T04:06:13.904Z,8.21
2022-10-09T04:08:41.129Z,8.72
2022-10-09T04:11:08.152Z,8.90
2022-10-09T04:13:35.109Z,9.31
2022-10-09T04:16:02.449Z,9.40
2022-10-09T04:18:29.456Z,9.35
2022-10-09T04:20:57.413Z,9.43
2022-10-09T04:23:27.229Z,10.10
2022-10-09T04:25:58.480Z,9.60
2022-10-09T04:28:30.410Z,9.35
2022-10-09T04:30:58.955Z,9.48
2022-10-09T04:33:27.169Z,9.03
2022-10-09T04:35:55.698Z,9.27
2022-10-09T04:38:23.917Z,9.26
2022-10-09T04:41:00.619Z,9.21
2022-10-09T04:43:29.101Z,9.45
2022-10-09T04:45:56.358Z,10.25
2022-10-09T04:48:23.701Z,10.18
2022-10-09T04:50:50.796Z,9.82
2022-10-09T04:53:17.785Z,9.46
2022-10-09T04:55:45.216Z,9.95
2022-10-09T04:58:13.943Z,10.24
2022-10-09T05:00:43.375Z,10.33
2022-10-09T05:03:11.884Z,10.21
2022-10-09T05:05:39.137Z,10.46
2022-10-09T05:08:06.398Z,9.80
2022-10-09T05:10:33.815Z,10.27
2022-10-09T05:13:00.947Z,10.61
2022-10-09T05:15:27.943Z,10.48
2022-10-09T05:17:55.079Z,10.23
2022-10-09T05:20:22.355Z,10.60
2022-10-09T05:22:49.846Z,10.65
2022-10-09T05:25:17.251Z,10.74
2022-10-09T05:27:44.157Z,10.80
2022-10-09T05:30:11.916Z,10.98
2022-10-09T05:32:38.877Z,10.90
2022-10-09T05:35:06.709Z,10.84
2022-10-09T05:37:33.698Z,10.84
2022-10-09T05:40:00.860Z,10.91
2022-10-09T05:42:27.764Z,10.39
2022-10-09T05:44:54.907Z,10.70
2022-10-09T05:47:22.005Z,10.79
2022-10-09T05:49:48.995Z,10.89
2022-10-09T05:52:16.283Z,10.91
2022-10-09T05:54:43.189Z,10.74
2022-10-09T05:57:10.523Z,10.85
2022-10-09T05:59:37.473Z,10.88
2022-10-09T06:02:04.899Z,10.81
2022-10-09T06:04:31.891Z,10.71
2022-10-09T06:06:59.088Z,10.93
2022-10-09T06:09:26.747Z,10.94
2022-10-09T06:11:55.169Z,10.52
2022-10-09T06:14:24.363Z,10.11
2022-10-09T06:16:51.806Z,10.06
2022-10-09T06:19:20.295Z,10.70
2022-10-09T06:21:47.955Z,10.84
2022-10-09T06:24:28.323Z,10.76
2022-10-09T06:26:57.302Z,10.86
2022-10-09T06:29:24.541Z,10.92
2022-10-09T06:31:51.799Z,10.65
2022-10-09T06:34:21.238Z,10.80
2022-10-09T06:36:48.837Z,10.79
2022-10-09T06:39:16.080Z,10.46
2022-10-09T06:41:43.013Z,10.92
2022-10-09T06:44:29.159Z,10.75
2022-10-09T06:46:56.120Z,10.49
2022-10-09T06:49:23.109Z,10.93
2022-10-09T06:51:50.056Z,10.81
2022-10-09T06:54:17.420Z,11.09
2022-10-09T06:56:45.220Z,11.05
2022-10-09T06:59:12.785Z,11.10
2022-10-09T07:01:39.976Z,10.77
2022-10-09T07:04:13.560Z,10.98
2022-10-09T07:06:44.246Z,11.22
2022-10-09T07:09:13.862Z,11.05
2022-10-09T07:11:49.419Z,10.37
2022-10-09T07:14:17.214Z,10.67
2022-10-09T07:16:47.153Z,11.05
2022-10-09T07:19:15.990Z,11.23
2022-10-09T07:21:46.127Z,11.18
2022-10-09T07:24:14.202Z,11.08
2022-10-09T07:26:44.703Z,11.32
2022-10-09T07:29:15.849Z,11.35
2022-10-09T07:31:43.260Z,11.25
2022-10-09T07:34:10.842Z,10.86
2022-10-09T07:36:37.896Z,11.42
2022-10-09T07:39:06.482Z,11.28
2022-10-09T07:41:34.273Z,11.04
2022-10-09T07:44:01.525Z,10.39
2022-10-09T07:46:33.206Z,10.76
2022-10-09T07:49:01.309Z,10.55
2022-10-09T07:51:29.731Z,10.73
2022-10-09T07:53:57.972Z,10.86
2022-10-09T07:56:29.351Z,11.01
2022-10-09T07:59:03.766Z,10.88
2022-10-09T08:01:33.253Z,11.11
2022-10-09T08:04:01.157Z,10.96
2022-10-09T08:06:28.885Z,10.96
2022-10-09T08:08:59.222Z,11.04
2022-10-09T08:11:29.122Z,11.16
2022-10-09T08:13:56.570Z,11.35
2022-10-09T08:16:25.572Z,11.07
2022-10-09T08:19:00.694Z,10.99
2022-10-09T08:21:28.839Z,11.13
2022-10-09T08:23:58.639Z,10.97
2022-10-09T08:26:29.320Z,11.45
2022-10-09T08:29:00.196Z,11.73
2022-10-09T08:31:28.859Z,11.37
2022-10-09T08:33:58.776Z,11.86
2022-10-09T08:36:26.516Z,11.48
2022-10-09T08:38:53.889Z,11.69
2022-10-09T08:41:33.010Z,11.77
2022-10-09T08:44:03.996Z,11.24
2022-10-09T08:47:02.545Z,11.81
2022-10-09T08:49:56.769Z,12.22
2022-10-09T08:53:03.882Z,11.22
2022-10-09T08:55:51.068Z,11.42
2022-10-09T08:58:21.409Z,11.80
2022-10-09T09:01:03.398Z,11.45
2022-10-09T09:04:04.009Z,11.39
2022-10-09T09:07:01.713Z,11.94
2022-10-09T09:10:15.107Z,11.37
2022-10-09T09:12:55.452Z,10.22
2022-10-09T09:15:34.298Z,10.56
2022-10-09T09:18:37.683Z,10.35
2022-10-09T09:21:29.878Z,10.87
2022-10-09T09:24:02.958Z,11.41
2022-10-09T09:26:30.092Z,11.58
2022-10-09T09:29:04.501Z,11.74
2022-10-09T09:31:37.991Z,11.93
2022-10-09T09:34:25.507Z,11.73
2022-10-09T09:36:57.984Z,12.14
2022-10-09T09:42:19.898Z,11.46
2022-10-09T09:45:00.258Z,11.08
2022-10-09T09:47:43.397Z,11.72
2022-10-09T09:50:28.526Z,11.05
2022-10-09T09:53:01.778Z,11.33
2022-10-09T09:55:31.360Z,11.22
2022-10-09T09:58:08.531Z,11.34
2022-10-09T10:00:36.393Z,12.45
2022-10-09T10:03:16.045Z,12.61
2022-10-09T10:05:45.856Z,12.71
2022-10-09T10:08:25.425Z,12.83
2022-10-09T10:11:03.006Z,12.49
2022-10-09T10:13:49.065Z,13.05
2022-10-09T10:16:27.073Z,12.99
2022-10-09T10:18:57.642Z,13.03
2022-10-09T10:21:24.935Z,12.45
2022-10-09T10:24:03.838Z,12.70
2022-10-09T10:26:58.505Z,13.01
2022-10-09T10:29:41.225Z,12.14
2022-10-09T10:32:29.079Z,13.04
2022-10-09T10:35:30.761Z,12.80
2022-10-09T10:38:14.035Z,13.47
2022-10-09T10:41:14.308Z,13.82
2022-10-09T10:43:48.448Z,13.61
2022-10-09T10:46:25.035Z,13.95
2022-10-09T10:48:52.668Z,14.11
2022-10-09T10:51:57.384Z,14.33
2022-10-09T10:54:39.755Z,14.47
2022-10-09T10:57:30.300Z,14.33
2022-10-09T11:00:05.843Z,14.42
2022-10-09T11:03:20.677Z,14.81
2022-10-09T11:06:27.202Z,15.25
2022-10-09T11:09:09.699Z,15.15
2022-10-09T11:11:52.800Z,14.87
2022-10-09T11:14:32.793Z,15.18
2022-10-09T11:17:06.931Z,15.23
2022-10-09T11:20:20.399Z,15.59
2022-10-09T11:23:22.087Z,15.94
2022-10-09T11:26:14.653Z,15.83
2022-10-09T11:29:18.587Z,15.16
2022-10-09T11:31:59.068Z,15.29
2022-10-09T11:34:33.977Z,15.26
2022-10-09T11:37:03.377Z,16.13
2022-10-09T11:39:32.484Z,16.84
2022-10-09T11:42:00.562Z,16.79
2022-10-09T11:45:07.510Z,16.95
2022-10-09T11:47:55.428Z,15.85
2022-10-09T11:50:59.449Z,17.21
2022-10-09T11:53:30.496Z,16.81
2022-10-09T11:56:21.141Z,17.33
2022-10-09T11:59:04.161Z,17.66
2022-10-09T12:01:40.745Z,17.63
2022-10-09T12:04:43.581Z,17.48
2022-10-09T12:07:13.263Z,17.77
2022-10-09T12:09:48.411Z,17.55
2022-10-09T12:12:23.135Z,17.84
2022-10-09T12:14:52.972Z,17.81
2022-10-09T12:17:23.016Z,18.21
2022-10-09T12:20:01.378Z,18.41
2022-10-09T12:22:37.502Z,18.41
2022-10-09T12:25:31.366Z,18.32
2022-10-09T12:28:00.515Z,18.22
2022-10-09T12:30:40.101Z,18.44
2022-10-09T12:33:27.999Z,18.80
2022-10-09T12:36:22.665Z,19.07
2022-10-09T12:38:50.342Z,17.83
2022-10-09T12:41:29.102Z,17.87
2022-10-09T12:43:58.301Z,18.86
2022-10-09T12:46:38.234Z,19.22
2022-10-09T12:49:18.064Z,18.68
2022-10-09T12:51:56.069Z,19.19
2022-10-09T12:54:25.645Z,19.02
2022-10-09T12:56:56.389Z,19.12
2022-10-09T12:59:27.240Z,19.86
2022-10-09T13:01:59.912Z,19.70
2022-10-09T13:04:34.055Z,19.67
2022-10-09T13:07:07.969Z,19.72
2022-10-09T13:09:41.073Z,19.53
2022-10-09T13:12:16.920Z,19.98
2022-10-09T13:14:51.958Z,19.75
2022-10-09T13:17:41.543Z,19.80
2022-10-09T13:20:17.440Z,19.38
2022-10-09T13:23:02.992Z,19.93
2022-10-09T13:25:38.779Z,19.87
2022-10-09T13:28:06.249Z,19.80
2022-10-09T13:30:33.521Z,19.40
2022-10-09T13:33:01.078Z,20.00
2022-10-09T13:35:28.062Z,20.34
2022-10-09T13:37:55.017Z,20.23
2022-10-09T13:40:22.479Z,19.46
2022-10-09T13:43:01.110Z,20.58
2022-10-09T13:45:28.508Z,20.55
2022-10-09T13:47:55.513Z,19.86
2022-10-09T13:50:22.778Z,20.63
2022-10-09T13:52:49.897Z,20.69
2022-10-09T13:55:17.392Z,20.69
2022-10-09T13:57:44.345Z,19.93
2022-10-09T14:00:12.437Z,20.59
2022-10-09T14:02:39.670Z,19.90
2022-10-09T14:05:08.130Z,20.34
2022-10-09T14:07:35.096Z,20.45
2022-10-09T14:10:02.289Z,20.36
2022-10-09T14:12:29.560Z,20.43
2022-10-09T14:14:56.717Z,20.65
2022-10-09T14:17:23.873Z,20.42
2022-10-09T14:19:52.180Z,20.78
2022-10-09T14:22:19.237Z,20.77
2022-10-09T14:24:46.273Z,20.73
2022-10-09T14:27:13.411Z,20.67
2022-10-09T14:29:40.372Z,20.73
2022-10-09T14:32:07.982Z,20.83
2022-10-09T14:34:35.080Z,20.86
2022-10-09T14:37:07.322Z,20.84
2022-10-09T14:39:43.478Z,20.64
2022-10-09T14:42:10.853Z,20.58
2022-10-09T14:44:37.882Z,20.99
2022-10-09T14:47:05.135Z,20.43
2022-10-09T14:49:32.238Z,20.14
2022-10-09T14:51:59.365Z,20.47
2022-10-09T14:54:27.410Z,20.35
2022-10-09T14:56:54.416Z,20.51
2022-10-09T14:59:21.421Z,20.78
2022-10-09T15:01:48.545Z,20.78
2022-10-09T15:04:15.929Z,20.65
2022-10-09T15:06:43.487Z,20.62
2022-10-09T15:09:10.654Z,19.83
2022-10-09T15:11:40.987Z,20.01
2022-10-09T15:14:08.686Z,19.71
2022-10-09T15:16:36.072Z,19.97
2022-10-09T15:19:05.587Z,19.56
2022-10-09T15:21:35.026Z,19.80
2022-10-09T15:24:04.356Z,19.90
2022-10-09T15:26:35.712Z,19.50
2022-10-09T15:29:07.403Z,19.49
2022-10-09T15:31:40.990Z,19.01
2022-10-09T15:34:10.170Z,18.98
2022-10-09T15:36:39.907Z,19.48
2022-10-09T15:39:07.822Z,19.58
2022-10-09T15:41:38.199Z,19.62
2022-10-09T15:44:29.266Z,19.43
2022-10-09T15:46:56.521Z,19.53
2022-10-09T15:49:23.454Z,19.77
2022-10-09T15:51:51.244Z,20.01
2022-10-09T15:54:18.240Z,19.59
2022-10-09T15:56:45.402Z,19.59
2022-10-09T15:59:14.180Z,19.53
2022-10-09T16:01:42.397Z,19.38
2022-10-09T16:04:12.665Z,19.49
2022-10-09T16:06:40.002Z,19.44
2022-10-09T16:09:07.549Z,19.45
2022-10-09T16:11:34.746Z,19.16
2022-10-09T16:14:02.068Z,19.08
2022-10-09T16:16:29.235Z,19.09
2022-10-09T16:18:56.866Z,19.10
2022-10-09T16:21:28.512Z,18.87
2022-10-09T16:23:59.322Z,18.89
2022-10-09T16:26:29.357Z,18.94
2022-10-09T16:28:56.833Z,18.91
2022-10-09T16:31:31.179Z,18.73
2022-10-09T16:33:59.101Z,18.63
2022-10-09T16:36:26.872Z,18.56
2022-10-09T16:38:54.655Z,17.89
2022-10-09T16:41:23.700Z,18.00
2022-10-09T16:43:53.608Z,18.07
2022-10-09T16:46:28.723Z,17.69
2022-10-09T16:48:57.248Z,17.42
2022-10-09T16:51:28.297Z,17.42
2022-10-09T16:54:00.138Z,17.23
2022-10-09T16:56:34.432Z,16.86
2022-10-09T16:59:05.960Z,17.30
2022-10-09T17:01:36.046Z,17.08
2022-10-09T17:04:03.793Z,16.54
2022-10-09T17:06:30.881Z,16.82
2022-10-09T17:08:59.710Z,16.05
2022-10-09T17:11:30.775Z,16.29
2022-10-09T17:13:58.603Z,16.55
2022-10-09T17:16:31.329Z,16.83
2022-10-09T17:18:59.069Z,15.91
2022-10-09T17:21:29.301Z,16.14
2022-10-09T17:24:03.180Z,16.10
2022-10-09T17:26:30.976Z,16.00
2022-10-09T17:28:59.815Z,16.14
2022-10-09T17:31:27.797Z,15.62
2022-10-09T17:33:58.589Z,15.94
2022-10-09T17:36:29.295Z,16.29
2022-10-09T17:38:57.097Z,15.66
2022-10-09T17:41:26.647Z,15.73
2022-10-09T17:43:55.159Z,15.97
2022-10-09T17:46:24.225Z,16.08
2022-10-09T17:48:56.036Z,16.00
2022-10-09T17:51:36.166Z,15.80
2022-10-09T17:54:13.202Z,15.76
2022-10-09T17:56:41.169Z,15.45
2022-10-09T17:59:08.939Z,15.47
2022-10-09T18:01:37.234Z,15.48
2022-10-09T18:04:04.590Z,15.22
2022-10-09T18:06:34.659Z,15.21
2022-10-09T18:09:02.927Z,15.31
2022-10-09T18:11:30.240Z,15.46
2022-10-09T18:13:57.799Z,15.36
2022-10-09T18:16:36.184Z,14.78
2022-10-09T18:19:15.169Z,15.11
2022-10-09T18:21:46.201Z,14.44
2022-10-09T18:24:14.338Z,14.59
2022-10-09T18:26:42.884Z,14.64
2022-10-09T18:29:09.951Z,14.75
2022-10-09T18:31:38.495Z,15.01
2022-10-09T18:34:05.581Z,14.85
2022-10-09T18:36:34.471Z,14.68
2022-10-09T18:39:08.739Z,14.36
2022-10-09T18:41:37.305Z,14.42
2022-10-09T18:44:05.850Z,14.29
2022-10-09T18:46:51.867Z,14.89
2022-10-09T18:49:24.717Z,14.71
2022-10-09T18:51:55.461Z,14.39
2022-10-09T18:54:25.809Z,14.36
2022-10-09T18:56:53.233Z,14.25
2022-10-09T18:59:22.237Z,14.90
2022-10-09T19:01:49.626Z,14.30
2022-10-09T19:04:16.641Z,14.34
2022-10-09T19:06:44.042Z,14.66
2022-10-09T19:09:11.083Z,14.77
2022-10-09T19:11:38.116Z,14.67
2022-10-09T19:14:05.312Z,13.99
2022-10-09T19:16:34.650Z,13.48
2022-10-09T19:19:02.256Z,14.05
2022-10-09T19:21:29.923Z,13.90
2022-10-09T19:23:57.054Z,13.62
2022-10-09T19:26:24.087Z,13.58
2022-10-09T19:28:51.909Z,13.36
2022-10-09T19:31:20.913Z,13.48
2022-10-09T19:33:47.901Z,13.54
2022-10-09T19:36:15.025Z,13.40
2022-10-09T19:38:42.086Z,13.71
2022-10-09T19:41:15.576Z,12.89
2022-10-09T19:43:42.874Z,13.49
2022-10-09T19:46:17.251Z,13.49
2022-10-09T19:48:45.924Z,12.90
2022-10-09T19:51:18.218Z,13.10
2022-10-09T19:53:45.811Z,12.88
2022-10-09T19:56:23.129Z,13.27
2022-10-09T19:58:50.675Z,13.42
2022-10-09T20:01:21.373Z,13.70
2022-10-09T20:03:53.913Z,13.11
2022-10-09T20:06:20.924Z,12.93
2022-10-09T20:08:48.168Z,13.09
2022-10-09T20:11:15.434Z,13.60
2022-10-09T20:13:43.447Z,13.60
2022-10-09T20:16:13.576Z,13.38
2022-10-09T20:18:42.358Z,13.35
2022-10-09T20:21:12.339Z,13.22
2022-10-09T20:23:39.789Z,12.80
2022-10-09T20:26:16.826Z,13.46
2022-10-09T20:28:44.655Z,13.27
2022-10-09T20:31:16.368Z,12.80
2022-10-09T20:33:44.152Z,12.84
2022-10-09T20:36:22.331Z,12.67
2022-10-09T20:38:49.574Z,12.84
2022-10-09T20:41:17.416Z,12.76
2022-10-09T20:43:44.962Z,12.53
2022-10-09T20:46:15.017Z,12.82
2022-10-09T20:48:45.213Z,13.29
2022-10-09T20:51:12.216Z,13.26
2022-10-09T20:53:39.296Z,13.34
2022-10-09T20:56:11.223Z,12.44
2022-10-09T20:58:39.148Z,13.05
2022-10-09T21:01:09.644Z,12.65
2022-10-09T21:03:38.566Z,12.34
2022-10-09T21:06:08.468Z,12.29
2022-10-09T21:08:36.091Z,12.96
2022-10-09T21:11:10.071Z,13.14
2022-10-09T21:13:38.487Z,12.74
2022-10-09T21:16:09.170Z,11.85
2022-10-09T21:18:37.848Z,12.09
2022-10-09T21:21:08.341Z,12.56
2022-10-09T21:23:35.578Z,13.27
2022-10-09T21:26:02.980Z,12.98
2022-10-09T21:28:30.490Z,12.86
2022-10-09T21:30:57.673Z,11.98
2022-10-09T21:33:24.652Z,11.86
2022-10-09T21:35:55.369Z,12.49
2022-10-09T21:38:23.696Z,11.58
2022-10-09T21:40:51.136Z,12.21
2022-10-09T21:43:18.646Z,12.36
2022-10-09T21:45:50.525Z,12.59
2022-10-09T21:48:17.787Z,12.69
2022-10-09T21:50:45.655Z,12.90
2022-10-09T21:53:13.055Z,12.92
2022-10-09T21:55:40.737Z,12.85
2022-10-09T21:58:08.090Z,13.10
2022-10-09T22:00:35.645Z,11.83
2022-10-09T22:03:02.643Z,12.89
2022-10-09T22:05:30.815Z,13.04
2022-10-09T22:07:57.747Z,12.15
2022-10-09T22:10:26.645Z,12.15
2022-10-09T22:12:53.843Z,12.46
2022-10-09T22:15:21.210Z,13.02
2022-10-09T22:17:48.157Z,12.84
2022-10-09T22:20:15.314Z,13.23
2022-10-09T22:22:42.243Z,13.05
2022-10-09T22:25:09.679Z,12.93
2022-10-09T22:27:36.711Z,13.21
2022-10-09T22:30:04.554Z,13.10
2022-10-09T22:32:31.508Z,12.34
2022-10-09T22:34:58.468Z,12.32
2022-10-09T22:37:25.453Z,12.42
2022-10-09T22:39:52.590Z,13.15
2022-10-09T22:42:19.534Z,13.20
2022-10-09T22:44:46.879Z,13.52
2022-10-09T22:47:13.987Z,12.79
2022-10-09T22:49:41.113Z,12.99
2022-10-09T22:52:08.062Z,12.62
2022-10-09T22:54:35.258Z,13.04
2022-10-09T22:57:02.318Z,12.89
2022-10-09T22:59:29.561Z,13.36
2022-10-09T23:01:58.219Z,12.65
2022-10-09T23:04:25.971Z,12.96
2022-10-09T23:06:58.800Z,12.51
2022-10-09T23:09:30.360Z,12.87
2022-10-09T23:11:59.169Z,12.69
2022-10-09T23:14:26.948Z,12.96
2022-10-09T23:16:54.010Z,12.32
2022-10-09T23:19:21.328Z,13.11
2022-10-09T23:21:48.330Z,13.08
2022-10-09T23:24:17.883Z,12.66
2022-10-09T23:26:46.738Z,12.94
2022-10-09T23:29:19.317Z,12.96
2022-10-09T23:31:46.933Z,13.00
2022-10-09T23:34:14.423Z,12.73
2022-10-09T23:36:41.528Z,12.84
2022-10-09T23:39:08.865Z,13.10
2022-10-09T23:41:35.964Z,12.36
2022-10-09T23:44:03.513Z,12.58
2022-10-09T23:46:37.574Z,12.73
2022-10-09T23:49:05.035Z,12.88
2022-10-09T23:51:32.271Z,12.89
2022-10-09T23:53:59.899Z,12.71
2022-10-09T23:56:34.156Z,13.32
2022-10-09T23:59:06.072Z,13.23
